createdAt,value
2023-05-05T00:00:01.795Z,9.88
2023-05-05T00:02:29.282Z,10.15
2023-05-05T00:04:57.124Z,9.90
2023-05-05T00:07:24.589Z,10.88
2023-05-05T00:09:52.339Z,10.10
2023-05-05T00:12:19.781Z,10.55
2023-05-05T00:14:47.435Z,9.57
2023-05-05T00:17:14.890Z,10.30
2023-05-05T00:19:43.024Z,9.73
2023-05-05T00:22:10.330Z,9.88
2023-05-05T00:24:37.836Z,10.45
2023-05-05T00:27:05.109Z,10.40
2023-05-05T00:29:32.968Z,11.45
2023-05-05T00:32:00.276Z,10.63
2023-05-05T00:34:28.028Z,10.52
2023-05-05T00:36:55.299Z,11.18
2023-05-05T00:39:23.132Z,10.82
2023-05-05T00:41:50.826Z,10.05
2023-05-05T00:44:18.480Z,10.13
2023-05-05T00:46:45.847Z,10.50
2023-05-05T00:49:13.840Z,10.85
2023-05-05T00:51:41.273Z,11.63
2023-05-05T00:54:10.843Z,11.68
2023-05-05T00:56:38.660Z,10.15
2023-05-05T00:59:06.469Z,10.27
2023-05-05T01:01:34.000Z,10.57
2023-05-05T01:04:01.682Z,10.73
2023-05-05T01:07:10.880Z,11.10
2023-05-05T01:10:18.186Z,10.07
2023-05-05T01:13:10.764Z,10.63
2023-05-05T01:15:42.544Z,10.70
2023-05-05T01:18:12.190Z,10.57
2023-05-05T01:21:07.962Z,11.05
2023-05-05T01:23:44.511Z,11.48
2023-05-05T01:26:49.821Z,12.98
2023-05-05T01:29:38.927Z,11.38
2023-05-05T01:32:15.167Z,11.10
2023-05-05T01:34:47.635Z,11.20
2023-05-05T01:37:52.467Z,11.15
2023-05-05T01:40:38.428Z,10.55
2023-05-05T01:43:07.818Z,10.00
2023-05-05T01:45:38.565Z,11.32
2023-05-05T01:48:07.361Z,10.90
2023-05-05T01:50:34.910Z,10.93
2023-05-05T01:53:04.019Z,10.82
2023-05-05T01:55:31.383Z,10.60
2023-05-05T01:57:59.348Z,10.85
2023-05-05T02:00:27.639Z,11.07
2023-05-05T02:03:00.144Z,10.88
2023-05-05T02:05:28.159Z,10.67
2023-05-05T02:07:58.588Z,11.50
2023-05-05T02:10:26.477Z,10.65
2023-05-05T02:12:54.445Z,10.40
2023-05-05T02:15:22.836Z,11.75
2023-05-05T02:17:54.948Z,10.10
2023-05-05T02:20:22.907Z,11.00
2023-05-05T02:22:51.086Z,11.10
2023-05-05T02:25:18.629Z,11.23
2023-05-05T02:27:48.507Z,10.95
2023-05-05T02:30:18.511Z,11.02
2023-05-05T02:32:54.462Z,10.07
2023-05-05T02:35:31.700Z,10.35
2023-05-05T02:38:05.633Z,10.63
2023-05-05T02:40:40.901Z,10.10
2023-05-05T02:43:11.798Z,10.95
2023-05-05T02:45:39.369Z,10.25
2023-05-05T02:48:07.396Z,11.10
2023-05-05T02:50:39.081Z,10.18
2023-05-05T02:53:25.808Z,10.55
2023-05-05T02:55:56.425Z,11.55
2023-05-05T02:58:31.898Z,10.00
2023-05-05T03:01:32.159Z,10.85
2023-05-05T03:04:25.389Z,9.95
2023-05-05T03:06:58.331Z,10.70
2023-05-05T03:09:45.916Z,10.98
2023-05-05T03:12:19.487Z,11.30
2023-05-05T03:14:58.819Z,10.40
2023-05-05T03:17:29.988Z,9.95
2023-05-05T03:19:59.502Z,10.65
2023-05-05T03:22:28.192Z,9.98
2023-05-05T03:24:56.755Z,11.00
2023-05-05T03:27:24.989Z,10.98
2023-05-05T03:29:52.926Z,10.52
2023-05-05T03:32:21.172Z,10.23
2023-05-05T03:34:48.880Z,10.73
2023-05-05T03:37:16.634Z,9.68
2023-05-05T03:39:44.274Z,10.93
2023-05-05T03:42:12.916Z,10.05
2023-05-05T03:44:40.962Z,10.10
2023-05-05T03:47:08.466Z,9.73
2023-05-05T03:49:38.377Z,10.73
2023-05-05T03:52:05.963Z,10.70
2023-05-05T03:54:33.874Z,10.43
2023-05-05T03:57:01.225Z,10.07
2023-05-05T03:59:29.064Z,10.90
2023-05-05T04:01:56.965Z,10.20
2023-05-05T04:04:24.908Z,9.98
2023-05-05T04:06:52.642Z,10.93
2023-05-05T04:09:20.572Z,9.10
2023-05-05T04:11:48.021Z,10.15
2023-05-05T04:14:16.558Z,9.77
2023-05-05T04:16:44.082Z,9.60
2023-05-05T04:19:13.307Z,9.15
2023-05-05T04:21:41.338Z,8.93
2023-05-05T04:24:09.860Z,8.65
2023-05-05T04:26:37.366Z,9.18
2023-05-05T04:29:05.098Z,9.13
2023-05-05T04:31:32.925Z,9.02
2023-05-05T04:34:00.748Z,7.88
2023-05-05T04:36:28.456Z,8.23
2023-05-05T04:38:56.161Z,8.57
2023-05-05T04:41:23.929Z,8.35
2023-05-05T04:43:51.823Z,8.80
2023-05-05T04:46:19.126Z,8.57
2023-05-05T04:48:47.051Z,8.15
2023-05-05T04:51:14.659Z,7.60
2023-05-05T04:53:42.571Z,7.45
2023-05-05T04:56:09.879Z,7.43
2023-05-05T04:58:37.681Z,8.10
2023-05-05T05:01:06.605Z,7.97
2023-05-05T05:03:34.267Z,7.50
2023-05-05T05:06:02.558Z,8.85
2023-05-05T05:08:30.295Z,7.68
2023-05-05T05:10:57.609Z,8.77
2023-05-05T05:13:25.620Z,8.35
2023-05-05T05:15:52.972Z,8.25
2023-05-05T05:18:20.612Z,7.90
2023-05-05T05:20:49.745Z,7.43
2023-05-05T05:23:17.489Z,7.65
2023-05-05T05:25:46.181Z,7.22
2023-05-05T05:28:15.986Z,6.90
2023-05-05T05:30:48.746Z,7.00
2023-05-05T05:33:16.376Z,7.00
2023-05-05T05:35:45.005Z,6.65
2023-05-05T05:38:13.087Z,6.78
2023-05-05T05:40:40.508Z,6.07
2023-05-05T05:43:08.308Z,5.60
2023-05-05T05:45:37.724Z,6.30
2023-05-05T05:48:07.294Z,6.43
2023-05-05T05:50:36.080Z,5.53
2023-05-05T05:53:03.906Z,5.53
2023-05-05T05:55:31.660Z,6.00
2023-05-05T05:57:59.887Z,6.28
2023-05-05T06:00:27.324Z,5.50
2023-05-05T06:03:02.411Z,5.53
2023-05-05T06:05:34.606Z,5.70
2023-05-05T06:08:02.414Z,5.28
2023-05-05T06:10:31.567Z,5.15
2023-05-05T06:13:06.468Z,5.20
2023-05-05T06:15:36.189Z,5.68
2023-05-05T06:18:05.575Z,5.80
2023-05-05T06:20:33.163Z,6.03
2023-05-05T06:23:00.970Z,5.90
2023-05-05T06:25:31.750Z,5.28
2023-05-05T06:28:00.131Z,5.55
2023-05-05T06:30:27.492Z,5.30
2023-05-05T06:32:55.279Z,4.45
2023-05-05T06:35:22.787Z,5.82
2023-05-05T06:37:50.514Z,5.43
2023-05-05T06:40:17.900Z,5.60
2023-05-05T06:42:45.795Z,5.55
2023-05-05T06:45:18.098Z,5.00
2023-05-05T06:47:45.718Z,5.60
2023-05-05T06:50:13.153Z,4.72
2023-05-05T06:52:41.575Z,5.43
2023-05-05T06:55:10.090Z,5.30
2023-05-05T06:57:37.869Z,6.32
2023-05-05T07:00:06.885Z,6.25
2023-05-05T07:02:35.205Z,5.68
2023-05-05T07:05:03.408Z,5.40
2023-05-05T07:07:32.641Z,5.47
2023-05-05T07:10:00.446Z,5.38
2023-05-05T07:12:33.702Z,5.25
2023-05-05T07:15:07.029Z,5.18
2023-05-05T07:17:43.696Z,4.90
2023-05-05T07:20:12.249Z,5.80
2023-05-05T07:22:39.950Z,6.22
2023-05-05T07:25:07.822Z,5.32
2023-05-05T07:27:36.029Z,4.35
2023-05-05T07:30:07.886Z,4.80
2023-05-05T07:32:37.926Z,4.72
2023-05-05T07:35:06.373Z,4.60
2023-05-05T07:37:34.308Z,4.90
2023-05-05T07:40:01.617Z,4.72
2023-05-05T07:42:29.224Z,5.25
2023-05-05T07:44:56.822Z,4.28
2023-05-05T07:47:24.428Z,3.88
2023-05-05T07:49:51.752Z,3.80
2023-05-05T07:52:21.507Z,4.43
2023-05-05T07:54:54.766Z,4.10
2023-05-05T07:57:22.440Z,3.72
2023-05-05T07:59:49.859Z,3.50
2023-05-05T08:02:17.755Z,3.80
2023-05-05T08:04:45.114Z,3.40
2023-05-05T08:07:12.855Z,3.70
2023-05-05T08:09:40.170Z,4.05
2023-05-05T08:12:07.693Z,3.58
2023-05-05T08:14:35.106Z,3.53
2023-05-05T08:17:02.758Z,3.83
2023-05-05T08:19:30.062Z,3.03
2023-05-05T08:22:01.031Z,3.65
2023-05-05T08:24:28.785Z,4.20
2023-05-05T08:26:56.787Z,3.92
2023-05-05T08:29:24.340Z,4.13
2023-05-05T08:31:52.535Z,4.13
2023-05-05T08:34:20.069Z,3.22
2023-05-05T08:36:49.402Z,3.95
2023-05-05T08:39:16.912Z,3.33
2023-05-05T08:41:44.776Z,4.18
2023-05-05T08:44:12.323Z,3.08
2023-05-05T08:46:41.359Z,3.90
2023-05-05T08:49:13.993Z,4.13
2023-05-05T08:51:43.299Z,4.25
2023-05-05T08:54:15.409Z,3.42
2023-05-05T08:56:45.112Z,3.28
2023-05-05T08:59:13.567Z,3.75
2023-05-05T09:01:43.184Z,3.50
2023-05-05T09:04:11.586Z,3.17
2023-05-05T09:06:39.137Z,3.35
2023-05-05T09:09:07.011Z,3.08
2023-05-05T09:11:34.991Z,3.17
2023-05-05T09:16:47.138Z,3.75
2023-05-05T09:19:14.553Z,3.38
2023-05-05T09:21:51.329Z,3.50
2023-05-05T09:24:18.914Z,3.13
2023-05-05T09:26:47.645Z,3.17
2023-05-05T09:29:19.677Z,2.80
2023-05-05T09:32:05.875Z,3.45
2023-05-05T09:34:35.239Z,3.38
2023-05-05T09:37:03.466Z,2.88
2023-05-05T09:39:30.950Z,3.35
2023-05-05T09:41:58.766Z,3.13
2023-05-05T09:44:38.462Z,3.45
2023-05-05T09:47:18.098Z,3.58
2023-05-05T09:50:11.229Z,2.97
2023-05-05T09:52:38.868Z,2.75
2023-05-05T09:55:07.162Z,2.95
2023-05-05T09:57:34.995Z,2.15
2023-05-05T10:00:04.275Z,2.88
2023-05-05T10:02:38.828Z,3.08
2023-05-05T10:05:11.696Z,2.75
2023-05-05T10:07:41.486Z,3.00
2023-05-05T10:10:17.732Z,3.10
2023-05-05T10:12:49.880Z,3.45
2023-05-05T10:15:17.629Z,2.58
2023-05-05T10:20:21.294Z,2.17
2023-05-05T10:22:53.566Z,3.08
2023-05-05T10:25:31.715Z,2.80
2023-05-05T10:28:05.205Z,3.70
2023-05-05T10:33:30.895Z,2.97
2023-05-05T10:36:02.632Z,2.92
2023-05-05T10:38:31.344Z,3.30
2023-05-05T10:41:00.159Z,2.80
2023-05-05T10:43:31.666Z,3.00
2023-05-05T10:45:59.433Z,3.13
2023-05-05T10:48:37.908Z,3.38
2023-05-05T10:51:21.113Z,2.88
2023-05-05T10:54:00.516Z,2.40
2023-05-05T10:56:32.811Z,2.80
2023-05-05T10:59:01.040Z,2.92
2023-05-05T11:01:31.701Z,2.95
2023-05-05T11:04:22.372Z,3.05
2023-05-05T11:07:10.301Z,2.63
2023-05-05T11:09:55.940Z,2.83
2023-05-05T11:12:23.285Z,2.85
2023-05-05T11:15:31.411Z,2.70
2023-05-05T11:18:01.919Z,2.45
2023-05-05T11:20:37.315Z,2.60
2023-05-05T11:23:04.979Z,2.80
2023-05-05T11:25:43.461Z,2.60
2023-05-05T11:28:21.184Z,3.55
2023-05-05T11:30:54.923Z,2.67
2023-05-05T11:33:32.656Z,2.95
2023-05-05T11:36:04.091Z,2.72
2023-05-05T11:38:39.080Z,2.70
2023-05-05T11:41:14.647Z,3.22
2023-05-05T11:43:42.507Z,3.05
2023-05-05T11:46:14.437Z,2.75
2023-05-05T11:48:49.299Z,2.80
2023-05-05T11:51:18.451Z,3.13
2023-05-05T11:53:47.393Z,3.40
2023-05-05T11:56:22.562Z,2.95
2023-05-05T11:58:50.253Z,3.72
2023-05-05T12:01:18.076Z,3.47
2023-05-05T12:03:46.095Z,3.22
2023-05-05T12:06:13.801Z,3.08
2023-05-05T12:08:41.575Z,2.92
2023-05-05T12:11:10.853Z,3.42
2023-05-05T12:13:38.510Z,3.75
2023-05-05T12:16:13.176Z,2.70
2023-05-05T12:18:41.192Z,3.47
2023-05-05T12:21:19.052Z,3.15
2023-05-05T12:23:46.686Z,3.22
2023-05-05T12:26:32.667Z,2.95
2023-05-05T12:29:00.968Z,3.03
2023-05-05T12:31:38.205Z,3.20
2023-05-05T12:34:07.133Z,3.30
2023-05-05T12:36:35.965Z,2.85
2023-05-05T12:39:05.430Z,2.92
2023-05-05T12:41:33.625Z,3.33
2023-05-05T12:44:02.014Z,3.60
2023-05-05T12:46:31.258Z,2.88
2023-05-05T12:49:05.360Z,2.55
2023-05-05T12:51:34.571Z,2.25
2023-05-05T12:54:10.026Z,2.55
2023-05-05T12:56:45.679Z,3.08
2023-05-05T12:59:30.139Z,3.00
2023-05-05T13:02:02.501Z,3.00
2023-05-05T13:04:29.923Z,3.60
2023-05-05T13:07:16.705Z,3.40
2023-05-05T13:09:44.397Z,3.78
2023-05-05T13:12:12.521Z,2.85
2023-05-05T13:14:40.939Z,2.97
2023-05-05T13:17:08.956Z,2.88
2023-05-05T13:19:41.864Z,3.55
2023-05-05T13:22:10.506Z,2.95
2023-05-05T13:24:49.702Z,2.80
2023-05-05T13:27:19.034Z,3.13
2023-05-05T13:29:46.245Z,2.40
2023-05-05T13:32:13.793Z,2.55
2023-05-05T13:34:42.673Z,2.42
2023-05-05T13:37:10.422Z,2.92
2023-05-05T13:39:37.782Z,2.65
2023-05-05T13:42:05.561Z,2.25
2023-05-05T13:44:33.046Z,2.53
2023-05-05T13:47:00.873Z,2.47
2023-05-05T13:49:28.203Z,2.20
2023-05-05T13:51:56.567Z,2.33
2023-05-05T13:54:23.969Z,2.83
2023-05-05T13:56:51.695Z,2.35
2023-05-05T13:59:19.122Z,2.55
2023-05-05T14:01:46.807Z,2.40
2023-05-05T14:04:14.391Z,2.67
2023-05-05T14:06:42.008Z,2.67
2023-05-05T14:09:09.293Z,2.20
2023-05-05T14:11:36.814Z,2.35
2023-05-05T14:14:04.095Z,2.67
2023-05-05T14:16:32.020Z,2.65
2023-05-05T14:18:59.372Z,3.20
2023-05-05T14:21:27.695Z,2.65
2023-05-05T14:23:55.706Z,2.75
2023-05-05T14:26:23.519Z,2.70
2023-05-05T14:28:51.269Z,2.47
2023-05-05T14:31:19.307Z,2.30
2023-05-05T14:33:46.685Z,2.30
2023-05-05T14:36:14.626Z,3.03
2023-05-05T14:38:43.156Z,2.50
2023-05-05T14:41:11.237Z,2.67
2023-05-05T14:43:38.609Z,2.33
2023-05-05T14:46:07.599Z,2.17
2023-05-05T14:48:35.278Z,6.72
2023-05-05T14:51:03.400Z,2.05
2023-05-05T14:53:30.801Z,2.03
2023-05-05T14:56:01.169Z,2.25
2023-05-05T14:58:28.489Z,3.05
2023-05-05T15:00:56.357Z,2.20
2023-05-05T15:03:23.628Z,2.05
2023-05-05T15:05:51.562Z,1.70
2023-05-05T15:08:21.460Z,2.50
2023-05-05T15:10:49.084Z,2.50
2023-05-05T15:13:17.351Z,2.10
2023-05-05T15:15:45.432Z,2.90
2023-05-05T15:18:12.740Z,2.00
2023-05-05T15:20:40.612Z,2.05
2023-05-05T15:23:08.069Z,2.35
2023-05-05T15:25:36.758Z,2.08
2023-05-05T15:28:04.307Z,2.13
2023-05-05T15:30:32.243Z,1.77
2023-05-05T15:32:59.699Z,2.22
2023-05-05T15:35:27.391Z,2.15
2023-05-05T15:37:54.976Z,2.08
2023-05-05T15:40:22.785Z,2.08
2023-05-05T15:42:50.028Z,1.98
2023-05-05T15:45:17.782Z,2.63
2023-05-05T15:47:46.193Z,2.40
2023-05-05T15:50:14.428Z,2.20
2023-05-05T15:52:41.959Z,2.50
2023-05-05T15:55:10.510Z,2.47
2023-05-05T15:57:39.999Z,2.30
2023-05-05T16:00:08.921Z,1.75
2023-05-05T16:02:37.635Z,2.00
2023-05-05T16:05:05.715Z,3.65
2023-05-05T16:07:33.039Z,2.30
2023-05-05T16:10:00.945Z,3.72
2023-05-05T16:12:28.313Z,2.08
2023-05-05T16:14:56.012Z,2.58
2023-05-05T16:17:23.399Z,2.70
2023-05-05T16:19:51.278Z,2.33
2023-05-05T16:22:18.628Z,2.25
2023-05-05T16:24:47.269Z,2.15
2023-05-05T16:27:15.306Z,2.20
2023-05-05T16:29:43.023Z,1.95
2023-05-05T16:32:10.288Z,2.33
2023-05-05T16:34:38.089Z,2.30
2023-05-05T16:37:06.045Z,2.20
2023-05-05T16:39:35.548Z,2.40
2023-05-05T16:42:03.789Z,2.17
2023-05-05T16:44:31.509Z,2.78
2023-05-05T16:46:58.854Z,2.97
2023-05-05T16:49:26.630Z,3.13
2023-05-05T16:51:54.016Z,2.22
2023-05-05T16:54:21.605Z,2.55
2023-05-05T16:56:48.931Z,3.10
2023-05-05T16:59:18.462Z,2.33
2023-05-05T17:01:45.930Z,2.70
2023-05-05T17:04:13.790Z,3.05
2023-05-05T17:06:41.143Z,2.25
2023-05-05T17:09:08.846Z,2.70
2023-05-05T17:11:36.243Z,6.63
2023-05-05T17:14:03.818Z,2.50
2023-05-05T17:16:31.408Z,2.55
2023-05-05T17:18:59.033Z,2.80
2023-05-05T17:21:27.077Z,2.83
2023-05-05T17:23:54.780Z,2.75
2023-05-05T17:26:23.186Z,2.50
2023-05-05T17:28:50.943Z,4.20
2023-05-05T17:31:18.184Z,3.10
2023-05-05T17:33:45.970Z,2.83
2023-05-05T17:36:13.330Z,3.22
2023-05-05T17:38:41.080Z,2.58
2023-05-05T17:41:08.478Z,2.97
2023-05-05T17:43:36.122Z,2.92
2023-05-05T17:46:03.488Z,2.80
2023-05-05T17:48:31.437Z,3.47
2023-05-05T17:50:58.707Z,3.10
2023-05-05T17:53:26.653Z,3.30
2023-05-05T17:55:54.753Z,3.35
2023-05-05T17:58:22.443Z,3.03
2023-05-05T18:00:49.678Z,3.35
2023-05-05T18:03:17.637Z,4.03
2023-05-05T18:05:44.935Z,3.70
2023-05-05T18:08:12.862Z,3.72
2023-05-05T18:10:40.199Z,3.75
2023-05-05T18:13:08.085Z,3.40
2023-05-05T18:15:35.706Z,3.65
2023-05-05T18:18:03.471Z,3.88
2023-05-05T18:20:31.219Z,3.97
2023-05-05T18:22:59.637Z,4.53
2023-05-05T18:25:29.246Z,4.30
2023-05-05T18:27:58.147Z,4.80
2023-05-05T18:30:26.450Z,4.30
2023-05-05T18:32:56.845Z,4.97
2023-05-05T18:35:25.502Z,4.43
2023-05-05T18:37:55.718Z,4.88
2023-05-05T18:40:25.739Z,5.05
2023-05-05T18:42:56.486Z,5.38
2023-05-05T18:45:27.204Z,5.43
2023-05-05T18:47:56.679Z,5.60
2023-05-05T18:50:26.950Z,6.20
2023-05-05T18:52:56.420Z,5.25
2023-05-05T18:55:26.424Z,6.18
2023-05-05T18:57:58.138Z,7.45
2023-05-05T19:00:27.274Z,6.97
2023-05-05T19:02:55.379Z,8.20
2023-05-05T19:05:22.795Z,6.88
2023-05-05T19:07:51.140Z,8.80
2023-05-05T19:10:18.948Z,7.47
2023-05-05T19:12:46.945Z,8.43
2023-05-05T19:15:15.160Z,7.03
2023-05-05T19:17:43.493Z,7.80
2023-05-05T19:20:12.323Z,7.35
2023-05-05T19:22:41.198Z,7.75
2023-05-05T19:25:10.066Z,6.85
2023-05-05T19:27:38.801Z,7.15
2023-05-05T19:30:07.583Z,6.70
2023-05-05T19:32:36.496Z,7.18
2023-05-05T19:35:04.342Z,7.70
2023-05-05T19:37:34.606Z,7.95
2023-05-05T19:40:02.933Z,7.80
2023-05-05T19:42:31.168Z,6.97
2023-05-05T19:44:59.222Z,8.32
2023-05-05T19:47:27.977Z,8.77
2023-05-05T19:49:55.836Z,8.63
2023-05-05T19:52:24.277Z,9.25
2023-05-05T19:54:52.102Z,8.73
2023-05-05T19:57:20.786Z,8.85
2023-05-05T19:59:50.598Z,8.25
2023-05-05T20:02:20.871Z,8.88
2023-05-05T20:04:49.808Z,8.70
2023-05-05T20:07:19.285Z,9.73
2023-05-05T20:09:46.992Z,8.68
2023-05-05T20:12:17.781Z,8.77
2023-05-05T20:14:46.128Z,8.63
2023-05-05T20:17:16.283Z,8.75
2023-05-05T20:20:01.976Z,9.57
2023-05-05T20:22:31.387Z,10.35
2023-05-05T20:24:59.367Z,10.05
2023-05-05T20:27:28.812Z,10.88
2023-05-05T20:29:56.870Z,11.27
2023-05-05T20:32:25.420Z,10.95
2023-05-05T20:34:54.606Z,11.10
2023-05-05T20:37:27.366Z,10.57
2023-05-05T20:39:55.088Z,10.93
2023-05-05T20:42:23.945Z,10.57
2023-05-05T20:44:54.353Z,9.88
2023-05-05T20:47:23.386Z,10.70
2023-05-05T20:49:52.774Z,9.43
2023-05-05T20:52:21.418Z,10.30
2023-05-05T20:54:49.387Z,9.25
2023-05-05T20:57:17.808Z,11.15
2023-05-05T20:59:58.854Z,10.73
2023-05-05T21:02:27.246Z,10.32
2023-05-05T21:04:55.502Z,10.85
2023-05-05T21:07:23.933Z,10.15
2023-05-05T21:09:52.076Z,11.07
2023-05-05T21:12:20.036Z,12.00
2023-05-05T21:14:48.211Z,10.32
2023-05-05T21:17:17.289Z,10.68
2023-05-05T21:19:47.706Z,9.98
2023-05-05T21:22:16.259Z,10.85
2023-05-05T21:24:44.630Z,10.82
2023-05-05T21:27:13.727Z,10.65
2023-05-05T21:29:42.009Z,10.63
2023-05-05T21:32:11.648Z,10.07
2023-05-05T21:34:39.916Z,10.23
2023-05-05T21:37:08.594Z,11.00
2023-05-05T21:39:36.378Z,10.77
2023-05-05T21:42:04.989Z,10.82
2023-05-05T21:44:33.012Z,10.68
2023-05-05T21:47:01.426Z,11.10
2023-05-05T21:49:30.099Z,10.82
2023-05-05T21:51:58.502Z,11.68
2023-05-05T21:54:26.562Z,10.90
2023-05-05T21:56:54.987Z,10.95
2023-05-05T21:59:22.756Z,10.98
2023-05-05T22:01:51.482Z,11.80
2023-05-05T22:04:19.825Z,11.07
2023-05-05T22:06:48.114Z,12.15
2023-05-05T22:09:15.989Z,11.75
2023-05-05T22:11:44.176Z,11.65
2023-05-05T22:14:11.987Z,11.30
2023-05-05T22:16:40.328Z,11.07
2023-05-05T22:19:08.589Z,10.82
2023-05-05T22:21:37.118Z,9.85
2023-05-05T22:24:05.516Z,10.85
2023-05-05T22:26:33.489Z,9.95
2023-05-05T22:29:01.353Z,9.75
2023-05-05T22:31:30.956Z,9.68
2023-05-05T22:33:59.468Z,9.40
2023-05-05T22:36:28.532Z,8.82
2023-05-05T22:38:56.384Z,8.57
2023-05-05T22:41:25.557Z,8.30
2023-05-05T22:43:53.355Z,11.77
2023-05-05T22:46:21.929Z,8.60
2023-05-05T22:48:49.861Z,7.95
2023-05-05T22:51:20.104Z,7.47
2023-05-05T22:53:49.839Z,7.63
2023-05-05T22:56:17.874Z,7.63
2023-05-05T22:58:47.368Z,7.47
2023-05-05T23:01:16.146Z,8.25
2023-05-05T23:03:44.076Z,8.32
2023-05-05T23:06:12.632Z,6.82
2023-05-05T23:08:42.221Z,7.57
2023-05-05T23:11:10.995Z,6.97
2023-05-05T23:13:39.975Z,6.95
2023-05-05T23:16:09.634Z,7.10
2023-05-05T23:18:39.100Z,6.18
2023-05-05T23:21:07.693Z,6.50
2023-05-05T23:23:35.565Z,5.88
2023-05-05T23:26:03.714Z,6.30
2023-05-05T23:28:31.390Z,6.30
2023-05-05T23:30:59.871Z,5.68
2023-05-05T23:33:32.073Z,5.97
2023-05-05T23:36:03.095Z,5.50
2023-05-05T23:38:31.026Z,5.13
2023-05-05T23:40:59.435Z,4.95
2023-05-05T23:43:27.196Z,4.63
2023-05-05T23:45:55.643Z,5.15
2023-05-05T23:48:24.277Z,4.95
2023-05-05T23:50:53.066Z,3.95
2023-05-05T23:53:20.894Z,4.90
2023-05-05T23:55:49.423Z,4.15
2023-05-05T23:58:17.313Z,4.68
